Terminal Aerodrome Forecast
Issued by NWS Quad Cities IA IL

Home | Current Version | Previous Version | Text Only | Print | Product List | Glossary On
Versions: 1 2 3 4 5 6 7 8 9 10 11 12 13 14 15 16 17 18 19 20 21 22 23 24
000
FTUS43 KDVN 261444 AAC
TAFDBQ
TAF AMD
KDBQ 261444Z 2615/2712 13012G18KT 5SM -SHRA BR SCT015 OVC025
      TEMPO 2615/2616 VRB15G23KT 1SM SHRA BR SCT008 OVC010
     FM261700 18012KT P6SM VCSH BKN025
     FM262000 22013G19KT P6SM BKN035
     FM270100 23006KT P6SM SCT035 BKN250=

USA.gov is the U.S. government's official web portal to all federal, state and local government web resources and services.